sensor_id;sensor_type;location;lat;lon;timestamp;P1;durP1;ratioP1;P2;durP2;ratioP2
66175;SDS011;52977;44.816;20.538;2023-07-02T00:01:44;9.07;;;3.75;;
66175;SDS011;52977;44.816;20.538;2023-07-02T00:04:11;6.82;;;3.13;;
66175;SDS011;52977;44.816;20.538;2023-07-02T00:06:44;18.80;;;4.65;;
66175;SDS011;52977;44.816;20.538;2023-07-02T00:09:14;8.93;;;3.60;;
66175;SDS011;52977;44.816;20.538;2023-07-02T00:11:41;6.80;;;3.45;;
66175;SDS011;52977;44.816;20.538;2023-07-02T00:14:09;8.55;;;4.07;;
66175;SDS011;52977;44.816;20.538;2023-07-02T00:16:38;7.65;;;3.33;;
66175;SDS011;52977;44.816;20.538;2023-07-02T00:19:05;9.40;;;3.63;;
66175;SDS011;52977;44.816;20.538;2023-07-02T00:21:31;9.00;;;3.78;;
66175;SDS011;52977;44.816;20.538;2023-07-02T00:23:59;7.22;;;3.17;;
66175;SDS011;52977;44.816;20.538;2023-07-02T00:26:26;10.65;;;4.05;;
66175;SDS011;52977;44.816;20.538;2023-07-02T00:28:53;7.05;;;3.35;;
66175;SDS011;52977;44.816;20.538;2023-07-02T00:31:20;9.50;;;3.70;;
66175;SDS011;52977;44.816;20.538;2023-07-02T00:33:45;8.23;;;3.63;;
66175;SDS011;52977;44.816;20.538;2023-07-02T00:36:12;9.55;;;4.00;;
66175;SDS011;52977;44.816;20.538;2023-07-02T00:38:44;8.88;;;3.95;;
66175;SDS011;52977;44.816;20.538;2023-07-02T00:41:11;7.22;;;3.75;;
66175;SDS011;52977;44.816;20.538;2023-07-02T00:43:37;8.02;;;4.00;;
66175;SDS011;52977;44.816;20.538;2023-07-02T00:46:15;8.88;;;3.80;;
66175;SDS011;52977;44.816;20.538;2023-07-02T00:48:46;8.65;;;4.00;;
66175;SDS011;52977;44.816;20.538;2023-07-02T00:51:19;8.13;;;3.83;;
66175;SDS011;52977;44.816;20.538;2023-07-02T00:53:49;12.75;;;4.40;;
66175;SDS011;52977;44.816;20.538;2023-07-02T00:56:16;9.35;;;4.18;;
66175;SDS011;52977;44.816;20.538;2023-07-02T00:58:43;7.70;;;3.67;;
66175;SDS011;52977;44.816;20.538;2023-07-02T01:01:22;9.40;;;4.38;;
66175;SDS011;52977;44.816;20.538;2023-07-02T01:03:51;9.98;;;4.28;;
66175;SDS011;52977;44.816;20.538;2023-07-02T01:06:24;11.88;;;4.75;;
66175;SDS011;52977;44.816;20.538;2023-07-02T01:08:54;9.07;;;4.53;;
66175;SDS011;52977;44.816;20.538;2023-07-02T01:11:21;12.15;;;4.88;;
66175;SDS011;52977;44.816;20.538;2023-07-02T01:13:50;9.82;;;4.30;;
66175;SDS011;52977;44.816;20.538;2023-07-02T01:16:18;10.30;;;5.00;;
66175;SDS011;52977;44.816;20.538;2023-07-02T01:18:44;8.88;;;4.53;;
66175;SDS011;52977;44.816;20.538;2023-07-02T01:21:10;11.02;;;5.10;;
66175;SDS011;52977;44.816;20.538;2023-07-02T01:23:36;10.80;;;4.60;;
66175;SDS011;52977;44.816;20.538;2023-07-02T01:26:03;10.70;;;4.60;;
66175;SDS011;52977;44.816;20.538;2023-07-02T01:28:34;11.63;;;5.15;;
66175;SDS011;52977;44.816;20.538;2023-07-02T01:31:04;10.75;;;4.70;;
66175;SDS011;52977;44.816;20.538;2023-07-02T01:33:30;11.15;;;4.68;;
66175;SDS011;52977;44.816;20.538;2023-07-02T01:35:57;10.70;;;5.13;;
66175;SDS011;52977;44.816;20.538;2023-07-02T01:38:23;11.23;;;5.20;;
66175;SDS011;52977;44.816;20.538;2023-07-02T01:40:49;12.10;;;5.35;;
66175;SDS011;52977;44.816;20.538;2023-07-02T01:43:16;11.20;;;5.43;;
66175;SDS011;52977;44.816;20.538;2023-07-02T01:45:42;11.65;;;5.30;;
66175;SDS011;52977;44.816;20.538;2023-07-02T01:48:08;13.60;;;5.47;;
66175;SDS011;52977;44.816;20.538;2023-07-02T01:50:34;11.10;;;5.22;;
66175;SDS011;52977;44.816;20.538;2023-07-02T01:53:00;9.15;;;4.55;;
66175;SDS011;52977;44.816;20.538;2023-07-02T01:55:25;13.13;;;5.07;;
66175;SDS011;52977;44.816;20.538;2023-07-02T01:57:51;17.35;;;5.13;;
66175;SDS011;52977;44.816;20.538;2023-07-02T02:00:16;10.73;;;4.90;;
66175;SDS011;52977;44.816;20.538;2023-07-02T02:05:08;10.37;;;4.97;;
66175;SDS011;52977;44.816;20.538;2023-07-02T02:07:35;10.68;;;5.05;;
66175;SDS011;52977;44.816;20.538;2023-07-02T02:10:04;11.93;;;5.15;;
66175;SDS011;52977;44.816;20.538;2023-07-02T02:12:31;11.77;;;4.70;;
66175;SDS011;52977;44.816;20.538;2023-07-02T02:14:57;10.65;;;5.05;;
66175;SDS011;52977;44.816;20.538;2023-07-02T02:17:24;11.07;;;5.13;;
66175;SDS011;52977;44.816;20.538;2023-07-02T02:19:50;11.07;;;5.45;;
66175;SDS011;52977;44.816;20.538;2023-07-02T02:22:16;11.68;;;5.05;;
66175;SDS011;52977;44.816;20.538;2023-07-02T02:24:43;12.52;;;4.88;;
66175;SDS011;52977;44.816;20.538;2023-07-02T02:27:09;11.10;;;5.43;;
66175;SDS011;52977;44.816;20.538;2023-07-02T02:29:35;12.90;;;5.32;;
66175;SDS011;52977;44.816;20.538;2023-07-02T02:32:02;11.13;;;5.07;;
66175;SDS011;52977;44.816;20.538;2023-07-02T02:34:28;12.88;;;5.40;;
66175;SDS011;52977;44.816;20.538;2023-07-02T02:36:55;9.05;;;4.72;;
66175;SDS011;52977;44.816;20.538;2023-07-02T02:39:22;12.57;;;4.70;;
66175;SDS011;52977;44.816;20.538;2023-07-02T02:41:48;9.57;;;4.55;;
66175;SDS011;52977;44.816;20.538;2023-07-02T02:44:18;9.32;;;4.38;;
66175;SDS011;52977;44.816;20.538;2023-07-02T02:46:45;11.95;;;5.03;;
66175;SDS011;52977;44.816;20.538;2023-07-02T02:49:12;9.63;;;4.47;;
66175;SDS011;52977;44.816;20.538;2023-07-02T02:51:38;11.70;;;5.43;;
66175;SDS011;52977;44.816;20.538;2023-07-02T02:54:06;9.38;;;4.38;;
66175;SDS011;52977;44.816;20.538;2023-07-02T02:56:31;10.73;;;4.45;;
66175;SDS011;52977;44.816;20.538;2023-07-02T02:58:57;11.23;;;4.95;;
66175;SDS011;52977;44.816;20.538;2023-07-02T03:01:23;12.85;;;4.45;;
66175;SDS011;52977;44.816;20.538;2023-07-02T03:04:13;10.13;;;4.95;;
66175;SDS011;52977;44.816;20.538;2023-07-02T03:06:39;10.45;;;5.15;;
66175;SDS011;52977;44.816;20.538;2023-07-02T03:09:05;12.45;;;5.78;;
66175;SDS011;52977;44.816;20.538;2023-07-02T03:11:30;10.30;;;4.85;;
66175;SDS011;52977;44.816;20.538;2023-07-02T03:13:56;10.82;;;4.47;;
66175;SDS011;52977;44.816;20.538;2023-07-02T03:16:21;10.38;;;4.32;;
66175;SDS011;52977;44.816;20.538;2023-07-02T03:18:47;10.50;;;4.63;;
66175;SDS011;52977;44.816;20.538;2023-07-02T03:21:13;11.90;;;5.18;;
66175;SDS011;52977;44.816;20.538;2023-07-02T03:23:38;11.25;;;4.63;;
66175;SDS011;52977;44.816;20.538;2023-07-02T03:26:04;12.00;;;4.88;;
66175;SDS011;52977;44.816;20.538;2023-07-02T03:28:29;9.75;;;4.80;;
66175;SDS011;52977;44.816;20.538;2023-07-02T03:30:55;12.80;;;5.30;;
66175;SDS011;52977;44.816;20.538;2023-07-02T03:33:20;10.57;;;4.85;;
66175;SDS011;52977;44.816;20.538;2023-07-02T03:35:46;10.32;;;5.13;;
66175;SDS011;52977;44.816;20.538;2023-07-02T03:38:12;9.50;;;5.07;;
66175;SDS011;52977;44.816;20.538;2023-07-02T03:40:37;12.02;;;5.05;;
66175;SDS011;52977;44.816;20.538;2023-07-02T03:43:03;13.73;;;4.97;;
66175;SDS011;52977;44.816;20.538;2023-07-02T03:45:28;12.00;;;4.78;;
66175;SDS011;52977;44.816;20.538;2023-07-02T03:47:54;10.50;;;4.90;;
66175;SDS011;52977;44.816;20.538;2023-07-02T03:50:20;12.75;;;4.25;;
66175;SDS011;52977;44.816;20.538;2023-07-02T03:52:47;11.82;;;5.15;;
66175;SDS011;52977;44.816;20.538;2023-07-02T03:55:12;10.18;;;4.65;;
66175;SDS011;52977;44.816;20.538;2023-07-02T03:57:38;9.40;;;4.60;;
66175;SDS011;52977;44.816;20.538;2023-07-02T04:00:04;9.68;;;4.82;;
66175;SDS011;52977;44.816;20.538;2023-07-02T04:02:50;8.98;;;4.85;;
66175;SDS011;52977;44.816;20.538;2023-07-02T04:05:16;10.30;;;5.00;;
66175;SDS011;52977;44.816;20.538;2023-07-02T04:07:42;10.93;;;5.07;;
66175;SDS011;52977;44.816;20.538;2023-07-02T04:10:09;9.40;;;4.95;;
66175;SDS011;52977;44.816;20.538;2023-07-02T04:12:35;11.93;;;4.82;;
66175;SDS011;52977;44.816;20.538;2023-07-02T04:15:01;9.90;;;4.50;;
66175;SDS011;52977;44.816;20.538;2023-07-02T04:17:28;10.57;;;5.15;;
66175;SDS011;52977;44.816;20.538;2023-07-02T04:19:55;9.52;;;4.28;;
66175;SDS011;52977;44.816;20.538;2023-07-02T04:22:21;10.55;;;5.10;;
66175;SDS011;52977;44.816;20.538;2023-07-02T04:24:47;10.43;;;4.80;;
66175;SDS011;52977;44.816;20.538;2023-07-02T04:27:15;11.27;;;4.72;;
66175;SDS011;52977;44.816;20.538;2023-07-02T04:29:43;11.00;;;4.60;;
66175;SDS011;52977;44.816;20.538;2023-07-02T04:32:10;13.23;;;4.65;;
66175;SDS011;52977;44.816;20.538;2023-07-02T04:34:36;12.93;;;4.85;;
66175;SDS011;52977;44.816;20.538;2023-07-02T04:37:05;11.15;;;4.38;;
66175;SDS011;52977;44.816;20.538;2023-07-02T04:39:31;9.93;;;4.30;;
66175;SDS011;52977;44.816;20.538;2023-07-02T04:41:56;10.68;;;4.93;;
66175;SDS011;52977;44.816;20.538;2023-07-02T04:44:23;9.63;;;4.60;;
66175;SDS011;52977;44.816;20.538;2023-07-02T04:46:58;10.10;;;4.53;;
66175;SDS011;52977;44.816;20.538;2023-07-02T04:49:24;10.50;;;4.70;;
66175;SDS011;52977;44.816;20.538;2023-07-02T04:51:50;7.55;;;3.88;;
66175;SDS011;52977;44.816;20.538;2023-07-02T04:54:16;13.57;;;5.07;;
66175;SDS011;52977;44.816;20.538;2023-07-02T04:56:41;8.93;;;4.32;;
66175;SDS011;52977;44.816;20.538;2023-07-02T04:59:07;9.80;;;4.97;;
66175;SDS011;52977;44.816;20.538;2023-07-02T05:01:32;8.27;;;4.30;;
66175;SDS011;52977;44.816;20.538;2023-07-02T05:03:58;10.93;;;4.38;;
66175;SDS011;52977;44.816;20.538;2023-07-02T05:06:25;15.00;;;4.55;;
66175;SDS011;52977;44.816;20.538;2023-07-02T05:08:51;11.07;;;4.57;;
66175;SDS011;52977;44.816;20.538;2023-07-02T05:11:18;10.65;;;4.80;;
66175;SDS011;52977;44.816;20.538;2023-07-02T05:13:44;10.18;;;4.68;;
66175;SDS011;52977;44.816;20.538;2023-07-02T05:16:10;10.15;;;5.07;;
66175;SDS011;52977;44.816;20.538;2023-07-02T05:18:36;8.88;;;4.53;;
66175;SDS011;52977;44.816;20.538;2023-07-02T05:21:02;14.63;;;4.80;;
66175;SDS011;52977;44.816;20.538;2023-07-02T05:23:29;13.73;;;4.82;;
66175;SDS011;52977;44.816;20.538;2023-07-02T05:25:55;10.13;;;4.60;;
66175;SDS011;52977;44.816;20.538;2023-07-02T05:28:21;10.98;;;5.03;;
66175;SDS011;52977;44.816;20.538;2023-07-02T05:30:47;10.68;;;5.10;;
66175;SDS011;52977;44.816;20.538;2023-07-02T05:33:13;10.45;;;4.70;;
66175;SDS011;52977;44.816;20.538;2023-07-02T05:35:39;9.52;;;4.05;;
66175;SDS011;52977;44.816;20.538;2023-07-02T05:38:04;9.75;;;4.68;;
66175;SDS011;52977;44.816;20.538;2023-07-02T05:40:30;9.30;;;4.50;;
66175;SDS011;52977;44.816;20.538;2023-07-02T05:42:56;11.15;;;4.68;;
66175;SDS011;52977;44.816;20.538;2023-07-02T05:45:21;11.93;;;5.43;;
66175;SDS011;52977;44.816;20.538;2023-07-02T05:47:48;9.57;;;4.78;;
66175;SDS011;52977;44.816;20.538;2023-07-02T05:50:14;11.38;;;5.07;;
66175;SDS011;52977;44.816;20.538;2023-07-02T05:52:40;10.65;;;5.10;;
66175;SDS011;52977;44.816;20.538;2023-07-02T05:55:07;15.18;;;6.88;;
66175;SDS011;52977;44.816;20.538;2023-07-02T05:57:36;12.07;;;5.93;;
66175;SDS011;52977;44.816;20.538;2023-07-02T06:00:03;11.20;;;5.47;;
66175;SDS011;52977;44.816;20.538;2023-07-02T06:02:37;11.60;;;4.88;;
66175;SDS011;52977;44.816;20.538;2023-07-02T06:05:02;10.02;;;5.32;;
66175;SDS011;52977;44.816;20.538;2023-07-02T06:07:29;12.30;;;5.70;;
66175;SDS011;52977;44.816;20.538;2023-07-02T06:09:56;11.70;;;5.75;;
66175;SDS011;52977;44.816;20.538;2023-07-02T06:12:22;14.00;;;5.78;;
66175;SDS011;52977;44.816;20.538;2023-07-02T06:14:48;10.70;;;5.63;;
66175;SDS011;52977;44.816;20.538;2023-07-02T06:17:14;9.88;;;4.93;;
66175;SDS011;52977;44.816;20.538;2023-07-02T06:19:41;11.30;;;4.85;;
66175;SDS011;52977;44.816;20.538;2023-07-02T06:22:07;11.60;;;5.28;;
66175;SDS011;52977;44.816;20.538;2023-07-02T06:24:32;9.90;;;5.22;;
66175;SDS011;52977;44.816;20.538;2023-07-02T06:26:59;10.48;;;5.40;;
66175;SDS011;52977;44.816;20.538;2023-07-02T06:29:25;12.43;;;5.10;;
66175;SDS011;52977;44.816;20.538;2023-07-02T06:31:51;10.07;;;5.05;;
66175;SDS011;52977;44.816;20.538;2023-07-02T06:34:16;9.68;;;5.07;;
66175;SDS011;52977;44.816;20.538;2023-07-02T06:36:43;12.63;;;5.40;;
66175;SDS011;52977;44.816;20.538;2023-07-02T06:39:09;13.50;;;6.20;;
66175;SDS011;52977;44.816;20.538;2023-07-02T06:41:35;9.85;;;5.15;;
66175;SDS011;52977;44.816;20.538;2023-07-02T06:44:02;10.93;;;5.25;;
66175;SDS011;52977;44.816;20.538;2023-07-02T06:46:28;11.80;;;5.43;;
66175;SDS011;52977;44.816;20.538;2023-07-02T06:48:55;11.75;;;5.05;;
66175;SDS011;52977;44.816;20.538;2023-07-02T06:51:21;11.57;;;6.28;;
66175;SDS011;52977;44.816;20.538;2023-07-02T06:53:48;15.75;;;7.68;;
66175;SDS011;52977;44.816;20.538;2023-07-02T06:56:14;12.25;;;6.10;;
66175;SDS011;52977;44.816;20.538;2023-07-02T06:58:44;11.18;;;6.03;;
66175;SDS011;52977;44.816;20.538;2023-07-02T07:01:10;13.55;;;6.53;;
66175;SDS011;52977;44.816;20.538;2023-07-02T07:03:36;11.30;;;6.03;;
66175;SDS011;52977;44.816;20.538;2023-07-02T07:06:03;10.18;;;5.35;;
66175;SDS011;52977;44.816;20.538;2023-07-02T07:08:29;10.90;;;5.50;;
66175;SDS011;52977;44.816;20.538;2023-07-02T07:10:55;11.43;;;5.45;;
66175;SDS011;52977;44.816;20.538;2023-07-02T07:13:21;12.00;;;5.45;;
66175;SDS011;52977;44.816;20.538;2023-07-02T07:15:47;12.95;;;5.22;;
66175;SDS011;52977;44.816;20.538;2023-07-02T07:18:12;10.65;;;5.18;;
66175;SDS011;52977;44.816;20.538;2023-07-02T07:20:39;13.05;;;5.57;;
66175;SDS011;52977;44.816;20.538;2023-07-02T07:23:07;11.20;;;5.18;;
66175;SDS011;52977;44.816;20.538;2023-07-02T07:25:34;9.65;;;5.00;;
66175;SDS011;52977;44.816;20.538;2023-07-02T07:27:59;11.75;;;5.18;;
66175;SDS011;52977;44.816;20.538;2023-07-02T07:30:25;11.30;;;5.57;;
66175;SDS011;52977;44.816;20.538;2023-07-02T07:32:52;11.50;;;5.50;;
66175;SDS011;52977;44.816;20.538;2023-07-02T07:35:20;12.10;;;5.47;;
66175;SDS011;52977;44.816;20.538;2023-07-02T07:37:48;10.50;;;5.60;;
66175;SDS011;52977;44.816;20.538;2023-07-02T07:40:14;12.27;;;5.50;;
66175;SDS011;52977;44.816;20.538;2023-07-02T07:42:43;10.50;;;5.28;;
66175;SDS011;52977;44.816;20.538;2023-07-02T07:45:10;11.50;;;5.65;;
66175;SDS011;52977;44.816;20.538;2023-07-02T07:47:37;12.27;;;5.40;;
66175;SDS011;52977;44.816;20.538;2023-07-02T07:50:04;12.00;;;5.70;;
66175;SDS011;52977;44.816;20.538;2023-07-02T07:52:36;10.02;;;5.47;;
66175;SDS011;52977;44.816;20.538;2023-07-02T07:55:05;11.03;;;5.50;;
66175;SDS011;52977;44.816;20.538;2023-07-02T07:57:31;10.52;;;5.90;;
66175;SDS011;52977;44.816;20.538;2023-07-02T07:59:57;18.73;;;10.15;;
66175;SDS011;52977;44.816;20.538;2023-07-02T08:02:23;12.23;;;6.15;;
66175;SDS011;52977;44.816;20.538;2023-07-02T08:04:49;11.45;;;7.03;;
66175;SDS011;52977;44.816;20.538;2023-07-02T08:07:15;14.00;;;5.85;;
66175;SDS011;52977;44.816;20.538;2023-07-02T08:09:41;10.75;;;5.93;;
66175;SDS011;52977;44.816;20.538;2023-07-02T08:12:07;11.43;;;5.32;;
66175;SDS011;52977;44.816;20.538;2023-07-02T08:14:34;9.65;;;5.40;;
66175;SDS011;52977;44.816;20.538;2023-07-02T08:17:02;11.95;;;5.88;;
66175;SDS011;52977;44.816;20.538;2023-07-02T08:19:28;10.63;;;5.70;;
66175;SDS011;52977;44.816;20.538;2023-07-02T08:21:53;12.68;;;5.95;;
66175;SDS011;52977;44.816;20.538;2023-07-02T08:24:19;13.93;;;6.60;;
66175;SDS011;52977;44.816;20.538;2023-07-02T08:26:46;21.60;;;8.48;;
66175;SDS011;52977;44.816;20.538;2023-07-02T08:29:13;11.00;;;5.85;;
66175;SDS011;52977;44.816;20.538;2023-07-02T08:31:40;11.68;;;6.07;;
66175;SDS011;52977;44.816;20.538;2023-07-02T08:34:06;13.93;;;7.53;;
66175;SDS011;52977;44.816;20.538;2023-07-02T08:36:32;12.07;;;6.30;;
66175;SDS011;52977;44.816;20.538;2023-07-02T08:38:58;11.82;;;5.70;;
66175;SDS011;52977;44.816;20.538;2023-07-02T08:41:24;10.38;;;5.75;;
66175;SDS011;52977;44.816;20.538;2023-07-02T08:43:54;12.95;;;6.03;;
66175;SDS011;52977;44.816;20.538;2023-07-02T08:46:22;10.55;;;5.75;;
66175;SDS011;52977;44.816;20.538;2023-07-02T08:48:48;11.57;;;5.78;;
66175;SDS011;52977;44.816;20.538;2023-07-02T08:51:15;9.90;;;5.32;;
66175;SDS011;52977;44.816;20.538;2023-07-02T08:53:41;11.43;;;5.78;;
66175;SDS011;52977;44.816;20.538;2023-07-02T08:56:07;14.95;;;6.55;;
66175;SDS011;52977;44.816;20.538;2023-07-02T08:58:34;11.15;;;6.43;;
66175;SDS011;52977;44.816;20.538;2023-07-02T09:01:04;12.88;;;5.97;;
66175;SDS011;52977;44.816;20.538;2023-07-02T09:03:31;11.40;;;6.72;;
66175;SDS011;52977;44.816;20.538;2023-07-02T09:05:57;12.73;;;6.68;;
66175;SDS011;52977;44.816;20.538;2023-07-02T09:08:24;12.57;;;6.90;;
66175;SDS011;52977;44.816;20.538;2023-07-02T09:10:52;15.25;;;7.25;;
66175;SDS011;52977;44.816;20.538;2023-07-02T09:13:18;13.30;;;7.20;;
66175;SDS011;52977;44.816;20.538;2023-07-02T09:15:44;11.40;;;6.72;;
66175;SDS011;52977;44.816;20.538;2023-07-02T09:18:44;12.32;;;7.15;;
66175;SDS011;52977;44.816;20.538;2023-07-02T09:21:03;12.27;;;7.18;;
66175;SDS011;52977;44.816;20.538;2023-07-02T09:23:35;12.80;;;7.55;;
66175;SDS011;52977;44.816;20.538;2023-07-02T09:26:01;12.43;;;7.63;;
66175;SDS011;52977;44.816;20.538;2023-07-02T09:28:29;19.13;;;10.85;;
66175;SDS011;52977;44.816;20.538;2023-07-02T09:30:55;14.65;;;7.00;;
66175;SDS011;52977;44.816;20.538;2023-07-02T09:33:27;12.90;;;7.07;;
66175;SDS011;52977;44.816;20.538;2023-07-02T09:35:53;12.65;;;7.07;;
66175;SDS011;52977;44.816;20.538;2023-07-02T09:38:21;12.43;;;6.22;;
66175;SDS011;52977;44.816;20.538;2023-07-02T09:40:51;9.77;;;5.78;;
66175;SDS011;52977;44.816;20.538;2023-07-02T09:43:18;14.05;;;6.28;;
66175;SDS011;52977;44.816;20.538;2023-07-02T09:45:45;12.95;;;6.25;;
66175;SDS011;52977;44.816;20.538;2023-07-02T09:48:16;12.05;;;6.55;;
66175;SDS011;52977;44.816;20.538;2023-07-02T09:50:43;13.57;;;6.97;;
66175;SDS011;52977;44.816;20.538;2023-07-02T09:53:10;17.33;;;6.50;;
66175;SDS011;52977;44.816;20.538;2023-07-02T09:55:36;11.30;;;6.20;;
66175;SDS011;52977;44.816;20.538;2023-07-02T09:58:05;10.93;;;5.95;;
66175;SDS011;52977;44.816;20.538;2023-07-02T10:00:31;11.13;;;5.95;;
66175;SDS011;52977;44.816;20.538;2023-07-02T10:02:58;10.45;;;5.85;;
66175;SDS011;52977;44.816;20.538;2023-07-02T10:05:29;9.82;;;6.18;;
66175;SDS011;52977;44.816;20.538;2023-07-02T10:07:57;12.95;;;6.38;;
66175;SDS011;52977;44.816;20.538;2023-07-02T10:10:26;11.65;;;6.68;;
66175;SDS011;52977;44.816;20.538;2023-07-02T10:12:56;11.75;;;5.75;;
66175;SDS011;52977;44.816;20.538;2023-07-02T10:15:26;9.65;;;6.10;;
66175;SDS011;52977;44.816;20.538;2023-07-02T10:17:54;12.02;;;6.40;;
66175;SDS011;52977;44.816;20.538;2023-07-02T10:20:31;10.68;;;5.88;;
66175;SDS011;52977;44.816;20.538;2023-07-02T10:23:06;10.60;;;5.80;;
66175;SDS011;52977;44.816;20.538;2023-07-02T10:25:34;11.98;;;6.68;;
66175;SDS011;52977;44.816;20.538;2023-07-02T10:28:19;10.82;;;5.97;;
66175;SDS011;52977;44.816;20.538;2023-07-02T10:30:48;12.98;;;6.53;;
66175;SDS011;52977;44.816;20.538;2023-07-02T10:33:14;11.00;;;6.47;;
66175;SDS011;52977;44.816;20.538;2023-07-02T10:35:45;15.05;;;6.88;;
66175;SDS011;52977;44.816;20.538;2023-07-02T10:38:24;11.05;;;6.25;;
66175;SDS011;52977;44.816;20.538;2023-07-02T10:43:25;12.82;;;7.00;;
66175;SDS011;52977;44.816;20.538;2023-07-02T10:45:56;11.40;;;6.18;;
66175;SDS011;52977;44.816;20.538;2023-07-02T10:48:23;12.57;;;7.38;;
66175;SDS011;52977;44.816;20.538;2023-07-02T10:50:49;10.93;;;6.07;;
66175;SDS011;52977;44.816;20.538;2023-07-02T10:53:15;11.50;;;6.15;;
66175;SDS011;52977;44.816;20.538;2023-07-02T10:55:43;13.35;;;6.28;;
66175;SDS011;52977;44.816;20.538;2023-07-02T10:58:10;13.93;;;6.93;;
66175;SDS011;52977;44.816;20.538;2023-07-02T11:00:44;10.32;;;5.82;;
66175;SDS011;52977;44.816;20.538;2023-07-02T11:03:21;12.52;;;7.05;;
66175;SDS011;52977;44.816;20.538;2023-07-02T11:05:48;11.50;;;5.65;;
66175;SDS011;52977;44.816;20.538;2023-07-02T11:08:15;10.63;;;6.03;;
66175;SDS011;52977;44.816;20.538;2023-07-02T11:10:41;9.45;;;5.13;;
66175;SDS011;52977;44.816;20.538;2023-07-02T11:13:17;10.02;;;5.65;;
66175;SDS011;52977;44.816;20.538;2023-07-02T11:15:44;11.05;;;5.55;;
66175;SDS011;52977;44.816;20.538;2023-07-02T11:18:12;11.75;;;5.75;;
66175;SDS011;52977;44.816;20.538;2023-07-02T11:20:39;12.52;;;6.80;;
66175;SDS011;52977;44.816;20.538;2023-07-02T11:23:21;11.70;;;6.57;;
66175;SDS011;52977;44.816;20.538;2023-07-02T11:25:58;11.30;;;6.80;;
66175;SDS011;52977;44.816;20.538;2023-07-02T11:28:26;10.50;;;6.55;;
66175;SDS011;52977;44.816;20.538;2023-07-02T11:30:54;12.60;;;7.22;;
66175;SDS011;52977;44.816;20.538;2023-07-02T11:33:20;11.75;;;6.45;;
66175;SDS011;52977;44.816;20.538;2023-07-02T11:36:00;14.73;;;7.30;;
66175;SDS011;52977;44.816;20.538;2023-07-02T11:38:26;12.02;;;6.38;;
66175;SDS011;52977;44.816;20.538;2023-07-02T11:40:51;11.02;;;6.65;;
66175;SDS011;52977;44.816;20.538;2023-07-02T11:43:17;10.85;;;6.00;;
66175;SDS011;52977;44.816;20.538;2023-07-02T11:45:43;12.85;;;6.40;;
66175;SDS011;52977;44.816;20.538;2023-07-02T11:48:09;11.02;;;6.10;;
66175;SDS011;52977;44.816;20.538;2023-07-02T11:50:34;12.40;;;5.75;;
66175;SDS011;52977;44.816;20.538;2023-07-02T11:53:00;11.35;;;5.57;;
66175;SDS011;52977;44.816;20.538;2023-07-02T11:55:25;12.80;;;6.28;;
66175;SDS011;52977;44.816;20.538;2023-07-02T11:57:51;14.38;;;5.10;;
66175;SDS011;52977;44.816;20.538;2023-07-02T12:00:17;10.77;;;5.30;;
66175;SDS011;52977;44.816;20.538;2023-07-02T12:02:43;11.40;;;5.60;;
66175;SDS011;52977;44.816;20.538;2023-07-02T12:05:08;12.55;;;5.57;;
66175;SDS011;52977;44.816;20.538;2023-07-02T12:07:35;10.63;;;5.93;;
66175;SDS011;52977;44.816;20.538;2023-07-02T12:10:00;11.73;;;6.20;;
66175;SDS011;52977;44.816;20.538;2023-07-02T12:12:26;12.15;;;5.80;;
66175;SDS011;52977;44.816;20.538;2023-07-02T12:14:52;12.80;;;5.32;;
66175;SDS011;52977;44.816;20.538;2023-07-02T12:17:18;11.15;;;5.72;;
66175;SDS011;52977;44.816;20.538;2023-07-02T12:19:44;13.07;;;4.93;;
66175;SDS011;52977;44.816;20.538;2023-07-02T12:22:10;9.07;;;5.20;;
66175;SDS011;52977;44.816;20.538;2023-07-02T12:24:36;11.32;;;5.40;;
66175;SDS011;52977;44.816;20.538;2023-07-02T12:27:03;11.10;;;6.22;;
66175;SDS011;52977;44.816;20.538;2023-07-02T12:29:29;10.52;;;5.53;;
66175;SDS011;52977;44.816;20.538;2023-07-02T12:31:55;11.65;;;6.18;;
66175;SDS011;52977;44.816;20.538;2023-07-02T12:34:21;9.63;;;5.65;;
66175;SDS011;52977;44.816;20.538;2023-07-02T12:36:47;10.52;;;5.68;;
66175;SDS011;52977;44.816;20.538;2023-07-02T12:39:12;10.50;;;5.40;;
66175;SDS011;52977;44.816;20.538;2023-07-02T12:41:38;9.93;;;5.80;;
66175;SDS011;52977;44.816;20.538;2023-07-02T12:44:04;10.52;;;5.70;;
66175;SDS011;52977;44.816;20.538;2023-07-02T12:46:30;10.35;;;5.65;;
66175;SDS011;52977;44.816;20.538;2023-07-02T12:48:56;11.18;;;5.90;;
66175;SDS011;52977;44.816;20.538;2023-07-02T12:51:23;12.93;;;6.13;;
66175;SDS011;52977;44.816;20.538;2023-07-02T12:53:49;11.82;;;6.43;;
66175;SDS011;52977;44.816;20.538;2023-07-02T12:56:15;9.88;;;5.68;;
66175;SDS011;52977;44.816;20.538;2023-07-02T12:58:41;11.15;;;6.00;;
66175;SDS011;52977;44.816;20.538;2023-07-02T13:01:08;10.38;;;6.00;;
66175;SDS011;52977;44.816;20.538;2023-07-02T13:03:34;11.15;;;6.50;;
66175;SDS011;52977;44.816;20.538;2023-07-02T13:06:00;11.25;;;6.28;;
66175;SDS011;52977;44.816;20.538;2023-07-02T13:08:26;11.68;;;6.28;;
66175;SDS011;52977;44.816;20.538;2023-07-02T13:10:52;11.05;;;6.47;;
66175;SDS011;52977;44.816;20.538;2023-07-02T13:13:18;12.05;;;6.45;;
66175;SDS011;52977;44.816;20.538;2023-07-02T13:15:44;11.18;;;6.32;;
66175;SDS011;52977;44.816;20.538;2023-07-02T13:18:09;10.73;;;5.90;;
66175;SDS011;52977;44.816;20.538;2023-07-02T13:20:35;10.10;;;5.90;;
66175;SDS011;52977;44.816;20.538;2023-07-02T13:23:00;16.58;;;6.78;;
66175;SDS011;52977;44.816;20.538;2023-07-02T13:25:28;12.35;;;7.05;;
66175;SDS011;52977;44.816;20.538;2023-07-02T13:27:53;12.95;;;6.75;;
66175;SDS011;52977;44.816;20.538;2023-07-02T13:30:19;12.27;;;6.78;;
66175;SDS011;52977;44.816;20.538;2023-07-02T13:32:45;11.77;;;7.05;;
66175;SDS011;52977;44.816;20.538;2023-07-02T13:35:11;13.35;;;6.78;;
66175;SDS011;52977;44.816;20.538;2023-07-02T13:37:36;10.93;;;6.45;;
66175;SDS011;52977;44.816;20.538;2023-07-02T13:40:02;13.43;;;5.82;;
66175;SDS011;52977;44.816;20.538;2023-07-02T13:42:30;11.77;;;6.38;;
66175;SDS011;52977;44.816;20.538;2023-07-02T13:44:56;9.88;;;5.53;;
66175;SDS011;52977;44.816;20.538;2023-07-02T13:47:22;10.55;;;6.45;;
66175;SDS011;52977;44.816;20.538;2023-07-02T13:49:48;8.15;;;4.72;;
66175;SDS011;52977;44.816;20.538;2023-07-02T13:52:14;10.57;;;5.18;;
66175;SDS011;52977;44.816;20.538;2023-07-02T13:54:41;8.43;;;4.47;;
66175;SDS011;52977;44.816;20.538;2023-07-02T13:57:07;9.25;;;5.55;;
66175;SDS011;52977;44.816;20.538;2023-07-02T13:59:33;7.38;;;4.10;;
66175;SDS011;52977;44.816;20.538;2023-07-02T14:01:59;9.20;;;4.95;;
66175;SDS011;52977;44.816;20.538;2023-07-02T14:04:25;7.28;;;4.40;;
66175;SDS011;52977;44.816;20.538;2023-07-02T14:06:50;8.70;;;4.50;;
66175;SDS011;52977;44.816;20.538;2023-07-02T14:09:16;8.50;;;4.75;;
66175;SDS011;52977;44.816;20.538;2023-07-02T14:11:43;8.73;;;5.03;;
66175;SDS011;52977;44.816;20.538;2023-07-02T14:14:09;7.63;;;4.22;;
66175;SDS011;52977;44.816;20.538;2023-07-02T14:16:35;7.72;;;4.32;;
66175;SDS011;52977;44.816;20.538;2023-07-02T14:19:01;8.80;;;5.10;;
66175;SDS011;52977;44.816;20.538;2023-07-02T14:21:27;12.27;;;5.05;;
66175;SDS011;52977;44.816;20.538;2023-07-02T14:23:53;9.48;;;5.32;;
66175;SDS011;52977;44.816;20.538;2023-07-02T14:26:20;11.57;;;6.07;;
66175;SDS011;52977;44.816;20.538;2023-07-02T14:28:46;12.80;;;6.10;;